Time;durP1;ratioP1;P1;durP2;ratioP2;P2;SDS_P1;SDS_P2;PMS_P1;PMS_P2;Temp;Humidity;BMP_temperature;BMP_pressure;BME280_temperature;BME280_humidity;BME280_pressure;Samples;Min_cycle;Max_cycle;Signal;HPM_P1;HPM_P2
2023/03/27 00:01:21;;;;;;;6.30;1.63;;;;;;;;;;5050145;28;20428;-77
2023/03/27 00:03:49;;;;;;;10.73;1.98;;;3.80;99.90;;;;;;5036706;28;20408;-77
2023/03/27 00:06:16;;;;;;;8.13;1.63;;;;;;;;;;5050548;28;20587;-77
2023/03/27 00:08:43;;;;;;;10.18;1.60;;;;;;;;;;5053677;28;20399;-77
2023/03/27 00:11:09;;;;;;;6.65;1.67;;;;;;;;;;5052566;28;20422;-77
2023/03/27 00:13:36;;;;;;;9.88;1.73;;;;;;;;;;5052951;28;20447;-77
2023/03/27 00:16:04;;;;;;;9.75;1.88;;;;;;;;;;5050816;28;20427;-78
2023/03/27 00:18:30;;;;;;;7.73;1.70;;;;;;;;;;5034372;28;20492;-77
2023/03/27 00:20:57;;;;;;;7.20;1.80;;;;;;;;;;5036094;28;20422;-77
2023/03/27 00:23:24;;;;;;;7.70;1.80;;;;;;;;;;5050472;28;20426;-77
2023/03/27 00:25:51;;;;;;;11.98;1.95;;;;;;;;;;5051640;28;20489;-77
2023/03/27 00:28:17;;;;;;;7.07;1.80;;;;;;;;;;5051144;28;20450;-77
2023/03/27 00:30:43;;;;;;;9.37;2.00;;;;;;;;;;5034642;28;20423;-77
2023/03/27 00:33:12;;;;;;;7.88;2.20;;;;;;;;;;5050483;28;20442;-77
2023/03/27 00:35:38;;;;;;;7.30;1.60;;;;;;;;;;5051565;28;20495;-77
2023/03/27 00:38:06;;;;;;;9.88;1.80;;;;;;;;;;5035820;28;20490;-77
2023/03/27 00:40:32;;;;;;;9.40;2.00;;;;;;;;;;5052652;28;20739;-78
2023/03/27 00:42:58;;;;;;;7.45;1.50;;;;;;;;;;5051457;28;20419;-78
2023/03/27 00:45:27;;;;;;;7.23;1.80;;;;;;;;;;5054848;28;20535;-77
2023/03/27 00:47:59;;;;;;;9.23;1.60;;;;;;;;;;5040030;28;20546;-77
2023/03/27 00:50:28;;;;;;;10.77;1.73;;;;;;;;;;5033713;28;20435;-77
2023/03/27 00:52:58;;;;;;;9.82;2.05;;;3.10;99.90;;;;;;5035992;28;20397;-77
2023/03/27 00:55:26;;;;;;;7.03;1.60;;;;;;;;;;5034060;28;20421;-77
2023/03/27 00:58:02;;;;;;;10.25;1.65;;;;;;;;;;5051141;28;20945;-77
2023/03/27 01:00:28;;;;;;;11.45;1.95;;;;;;;;;;5051855;28;20459;-76
2023/03/27 01:02:54;;;;;;;7.93;1.80;;;;;;;;;;5052437;28;20409;-76
2023/03/27 01:05:21;;;;;;;8.27;1.83;;;;;;;;;;5048506;28;20437;-77
2023/03/27 01:07:48;;;;;;;7.90;1.70;;;;;;;;;;5034382;28;20824;-76
2023/03/27 01:10:15;;;;;;;6.82;1.98;;;;;;;;;;5050075;28;20947;-77
2023/03/27 01:13:17;;;;;;;7.65;2.05;;;3.50;99.90;;;;;;5047464;28;20916;-77
2023/03/27 01:15:47;;;;;;;5.63;1.60;;;;;;;;;;5051832;28;20416;-77
2023/03/27 01:18:32;;;;;;;7.10;1.60;;;;;;;;;;5051670;28;20421;-77
2023/03/27 01:20:58;;;;;;;7.23;1.60;;;;;;;;;;5032664;28;20499;-77
2023/03/27 01:23:24;;;;;;;9.05;1.92;;;;;;;;;;5021380;28;20504;-76
2023/03/27 01:26:13;;;;;;;7.53;1.80;;;;;;;;;;5050932;28;20780;-76
2023/03/27 01:28:45;;;;;;;9.15;2.10;;;;;;;;;;5031569;28;20419;-77
2023/03/27 01:31:27;;;;;;;9.18;1.80;;;;;;;;;;5017232;28;20759;-77
2023/03/27 01:34:00;;;;;;;6.50;1.63;;;;;;;;;;5050949;28;20471;-77
2023/03/27 01:36:26;;;;;;;8.70;1.95;;;;;;;;;;5031549;28;20431;-77
2023/03/27 01:39:05;;;;;;;9.27;1.88;;;;;;;;;;5049757;28;20491;-77
2023/03/27 01:41:51;;;;;;;6.88;1.50;;;3.10;99.90;;;;;;5032648;28;22117;-77
2023/03/27 01:44:26;;;;;;;6.88;1.83;;;;;;;;;;5051235;28;20417;-77
2023/03/27 01:46:54;;;;;;;11.35;1.75;;;;;;;;;;5051001;28;20508;-77
2023/03/27 01:49:25;;;;;;;8.20;1.80;;;;;;;;;;5050672;28;20409;-77
2023/03/27 01:51:56;;;;;;;9.65;1.90;;;;;;;;;;4968869;28;1835668;-77
2023/03/27 01:54:36;;;;;;;8.65;1.60;;;3.00;99.90;;;;;;5055848;28;20415;-78
2023/03/27 01:57:15;;;;;;;7.28;1.67;;;;;;;;;;5054631;28;20431;-78
2023/03/27 01:59:45;;;;;;;11.40;1.85;;;2.80;99.90;;;;;;5056073;28;20439;-78
2023/03/27 02:02:18;;;;;;;6.67;1.83;;;;;;;;;;5036889;28;20463;-78
2023/03/27 02:04:55;;;;;;;7.17;1.60;;;3.30;99.90;;;;;;5051536;28;20944;-78
2023/03/27 02:07:29;;;;;;;9.13;1.70;;;;;;;;;;5055655;28;20518;-78
2023/03/27 02:09:57;;;;;;;9.93;2.10;;;;;;;;;;5056169;28;20431;-78
2023/03/27 02:12:29;;;;;;;8.90;1.77;;;;;;;;;;5052320;28;20430;-78
2023/03/27 02:14:57;;;;;;;8.55;1.90;;;;;;;;;;5052974;28;20419;-78
2023/03/27 02:17:26;;;;;;;9.30;1.70;;;;;;;;;;5026275;28;20419;-78
2023/03/27 02:19:53;;;;;;;9.05;1.80;;;;;;;;;;5049959;28;20419;-78
2023/03/27 02:22:19;;;;;;;8.30;1.85;;;;;;;;;;5052912;28;21302;-78
2023/03/27 02:24:45;;;;;;;13.93;2.30;;;;;;;;;;5035960;28;20439;-78
2023/03/27 02:27:14;;;;;;;9.85;1.77;;;;;;;;;;5035760;28;20434;-78
2023/03/27 02:30:00;;;;;;;7.87;1.70;;;;;;;;;;5058102;28;20458;-76
2023/03/27 02:32:26;;;;;;;8.98;1.88;;;;;;;;;;5059941;28;20426;-77
2023/03/27 02:35:11;;;;;;;6.97;2.05;;;;;;;;;;5063805;28;20450;-76
2023/03/27 02:37:40;;;;;;;9.07;1.90;;;;;;;;;;5061167;28;20436;-77
2023/03/27 02:40:09;;;;;;;9.07;1.80;;;;;;;;;;5027028;28;20402;-78
2023/03/27 02:42:49;;;;;;;13.27;1.92;;;;;;;;;;5059589;28;20465;-77
2023/03/27 02:45:24;;;;;;;9.30;1.92;;;;;;;;;;5060820;28;20419;-77
2023/03/27 02:48:11;;;;;;;8.50;1.70;;;;;;;;;;5061639;28;20427;-78
2023/03/27 02:50:40;;;;;;;8.07;1.92;;;;;;;;;;5063428;28;20428;-77
2023/03/27 02:53:08;;;;;;;9.95;1.90;;;;;;;;;;5061819;28;20429;-78
2023/03/27 02:55:40;;;;;;;10.95;2.20;;;;;;;;;;5058061;28;20830;-77
2023/03/27 02:58:08;;;;;;;10.63;1.80;;;;;;;;;;5053738;28;20432;-77
2023/03/27 03:00:38;;;;;;;10.25;2.00;;;;;;;;;;5054360;28;20428;-77
2023/03/27 03:03:07;;;;;;;10.07;2.10;;;;;;;;;;5052334;28;20435;-77
2023/03/27 03:05:35;;;;;;;9.10;2.15;;;;;;;;;;5053645;28;20455;-77
2023/03/27 03:08:02;;;;;;;9.83;2.40;;;;;;;;;;5052462;28;20411;-77
2023/03/27 03:10:28;;;;;;;9.95;1.98;;;;;;;;;;5054295;28;20899;-77
2023/03/27 03:12:54;;;;;;;10.40;1.90;;;;;;;;;;5052769;28;20423;-77
2023/03/27 03:15:20;;;;;;;6.93;2.20;;;;;;;;;;5054138;28;20443;-77
2023/03/27 03:17:46;;;;;;;9.63;2.38;;;;;;;;;;5038206;28;20428;-77
2023/03/27 03:20:13;;;;;;;6.97;1.98;;;;;;;;;;5051570;28;20998;-76
2023/03/27 03:22:40;;;;;;;8.25;1.92;;;;;;;;;;5053669;28;20415;-77
2023/03/27 03:25:07;;;;;;;10.00;2.05;;;;;;;;;;5052977;28;20442;-77
2023/03/27 03:27:33;;;;;;;8.70;1.73;;;;;;;;;;5020195;28;20437;-77
2023/03/27 03:29:59;;;;;;;7.32;1.90;;;;;;;;;;5051398;28;20503;-77
2023/03/27 03:32:26;;;;;;;9.13;1.90;;;;;;;;;;5053461;28;20421;-78
2023/03/27 03:34:52;;;;;;;6.95;1.85;;;;;;;;;;5050584;28;20427;-78
2023/03/27 03:37:18;;;;;;;6.90;1.90;;;;;;;;;;5053453;28;20427;-78
2023/03/27 03:39:45;;;;;;;9.23;1.90;;;;;;;;;;5051244;28;20420;-78
2023/03/27 03:42:11;;;;;;;6.60;1.92;;;;;;;;;;5031944;28;20769;-78
2023/03/27 03:44:38;;;;;;;10.65;1.90;;;;;;;;;;5050829;28;20419;-78
2023/03/27 03:47:05;;;;;;;9.55;2.15;;;;;;;;;;5054182;28;20922;-79
2023/03/27 03:49:31;;;;;;;8.00;1.93;;;;;;;;;;5035462;28;20512;-78
2023/03/27 03:51:57;;;;;;;8.50;2.08;;;;;;;;;;5049399;28;20480;-78
2023/03/27 03:54:23;;;;;;;7.85;1.90;;;;;;;;;;5052271;28;20474;-78
2023/03/27 03:56:49;;;;;;;10.88;2.47;;;;;;;;;;5036043;28;20426;-76
2023/03/27 03:59:16;;;;;;;6.70;2.28;;;;;;;;;;5051786;28;20518;-77
2023/03/27 04:01:42;;;;;;;7.80;1.92;;;;;;;;;;5052385;28;20787;-78
2023/03/27 04:04:08;;;;;;;10.00;2.13;;;;;;;;;;5053419;28;20431;-77
2023/03/27 04:06:37;;;;;;;8.93;1.80;;;;;;;;;;5049890;28;20511;-77
2023/03/27 04:09:04;;;;;;;10.75;1.92;;;;;;;;;;5036610;28;20416;-78
2023/03/27 04:11:30;;;;;;;10.00;2.00;;;;;;;;;;5053221;28;20494;-77
2023/03/27 04:13:56;;;;;;;8.03;2.00;;;;;;;;;;5021477;28;20836;-77
2023/03/27 04:16:22;;;;;;;8.90;2.13;;;;;;;;;;5033444;28;20419;-77
2023/03/27 04:18:49;;;;;;;6.00;1.75;;;;;;;;;;5050511;28;20420;-77
2023/03/27 04:21:16;;;;;;;8.27;2.10;;;;;;;;;;5066194;28;20476;-76
2023/03/27 04:23:43;;;;;;;10.13;2.40;;;;;;;;;;5053269;28;20938;-76
2023/03/27 04:26:11;;;;;;;8.32;2.00;;;;;;;;;;5028848;28;20432;-76
2023/03/27 04:28:37;;;;;;;10.38;2.22;;;;;;;;;;5042251;28;20430;-77
2023/03/27 04:31:07;;;;;;;8.43;2.40;;;;;;;;;;5052686;28;20971;-77
2023/03/27 04:33:34;;;;;;;8.63;2.00;;;2.30;99.90;;;;;;5050219;28;20440;-76
2023/03/27 04:36:01;;;;;;;7.47;2.33;;;;;;;;;;5036352;28;20442;-77
2023/03/27 04:38:30;;;;;;;11.63;2.10;;;;;;;;;;5053386;28;20983;-80
2023/03/27 04:40:56;;;;;;;11.02;2.35;;;;;;;;;;5047884;28;20429;-80
2023/03/27 04:43:24;;;;;;;9.17;2.37;;;;;;;;;;5034238;28;20464;-80
2023/03/27 04:45:52;;;;;;;9.80;2.65;;;;;;;;;;5025397;28;20919;-80
2023/03/27 04:48:18;;;;;;;11.43;2.40;;;;;;;;;;5049395;28;20412;-80
2023/03/27 04:50:48;;;;;;;7.20;2.08;;;;;;;;;;5048863;28;20426;-80
2023/03/27 04:53:19;;;;;;;14.70;3.57;;;;;;;;;;5050402;28;20493;-79
2023/03/27 04:55:45;;;;;;;9.43;2.30;;;;;;;;;;5032230;28;20425;-80
2023/03/27 04:58:12;;;;;;;11.35;2.38;;;;;;;;;;5049477;28;20441;-79
2023/03/27 05:00:38;;;;;;;7.10;2.00;;;;;;;;;;5016023;28;21019;-80
2023/03/27 05:03:04;;;;;;;8.20;1.92;;;;;;;;;;5032743;28;20423;-81
2023/03/27 05:05:30;;;;;;;8.93;2.20;;;;;;;;;;5031642;28;20924;-80
2023/03/27 05:07:57;;;;;;;9.00;2.13;;;;;;;;;;5032469;28;20420;-80
2023/03/27 05:10:23;;;;;;;10.70;2.43;;;;;;;;;;5014825;28;20515;-81
2023/03/27 05:12:50;;;;;;;9.98;2.28;;;;;;;;;;5030207;28;20397;-79
2023/03/27 05:15:17;;;;;;;9.77;2.40;;;;;;;;;;5027407;28;20436;-79
2023/03/27 05:17:45;;;;;;;11.90;2.47;;;;;;;;;;5046902;28;20429;-80
2023/03/27 05:20:13;;;;;;;10.07;2.50;;;;;;;;;;5049283;28;20425;-80
2023/03/27 05:22:40;;;;;;;10.88;2.15;;;;;;;;;;5047525;28;20940;-80
2023/03/27 05:25:07;;;;;;;8.23;2.17;;;;;;;;;;5016854;28;20405;-80
2023/03/27 05:27:33;;;;;;;10.48;2.72;;;;;;;;;;5029393;28;20448;-79
2023/03/27 05:29:59;;;;;;;11.73;2.30;;;;;;;;;;5050665;28;20417;-80
2023/03/27 05:32:25;;;;;;;9.45;2.92;;;;;;;;;;5033261;28;20496;-80
2023/03/27 05:34:53;;;;;;;11.02;2.28;;;;;;;;;;5053673;28;20401;-80
2023/03/27 05:37:22;;;;;;;9.15;2.47;;;;;;;;;;5051832;28;20815;-80
2023/03/27 05:39:48;;;;;;;8.07;1.98;;;;;;;;;;5034682;28;20424;-80
2023/03/27 05:42:15;;;;;;;14.70;3.70;;;;;;;;;;5052021;28;20915;-80
2023/03/27 05:44:42;;;;;;;12.63;3.80;;;;;;;;;;5050419;28;20446;-80
2023/03/27 05:47:09;;;;;;;8.52;2.17;;;;;;;;;;5018074;28;20839;-79
2023/03/27 05:49:35;;;;;;;8.20;1.73;;;;;;;;;;5030765;28;20466;-80
2023/03/27 05:52:02;;;;;;;8.40;1.90;;;;;;;;;;5053552;28;20498;-79
2023/03/27 05:54:28;;;;;;;8.50;1.70;;;;;;;;;;5054960;28;20430;-80
2023/03/27 05:56:54;;;;;;;8.20;1.48;;;;;;;;;;5054360;28;20419;-79
2023/03/27 05:59:21;;;;;;;6.20;1.30;;;;;;;;;;5035768;28;20527;-80
2023/03/27 06:01:49;;;;;;;6.47;1.50;;;;;;;;;;5052511;28;20424;-80
2023/03/27 06:04:16;;;;;;;6.68;1.67;;;;;;;;;;5023460;28;21002;-80
2023/03/27 06:06:43;;;;;;;6.57;2.20;;;;;;;;;;5037388;28;20427;-81
2023/03/27 06:09:09;;;;;;;6.22;1.50;;;;;;;;;;5037396;28;20832;-82
2023/03/27 06:11:35;;;;;;;6.32;1.90;;;;;;;;;;5035637;28;20506;-81
2023/03/27 06:14:01;;;;;;;7.05;1.60;;;;;;;;;;5052408;28;20416;-82
2023/03/27 06:16:28;;;;;;;7.65;1.60;;;;;;;;;;5053082;28;20401;-81
2023/03/27 06:18:54;;;;;;;8.55;1.92;;;;;;;;;;5052237;28;20496;-82
2023/03/27 06:21:20;;;;;;;7.68;1.55;;;;;;;;;;5051221;28;20514;-82
2023/03/27 06:23:46;;;;;;;6.00;1.20;;;;;;;;;;5032702;28;20427;-80
2023/03/27 06:26:14;;;;;;;5.60;1.40;;;;;;;;;;5050936;28;20431;-80
2023/03/27 06:28:40;;;;;;;9.68;1.70;;;;;;;;;;5048278;28;20415;-81
2023/03/27 06:31:07;;;;;;;5.97;1.30;;;;;;;;;;5046096;28;20983;-80
2023/03/27 06:33:34;;;;;;;8.80;1.50;;;;;;;;;;5055397;28;20933;-80
2023/03/27 06:36:00;;;;;;;9.13;1.70;;;;;;;;;;5056321;28;20748;-81
2023/03/27 06:38:28;;;;;;;4.50;1.40;;;;;;;;;;5038936;28;20488;-80
2023/03/27 06:40:54;;;;;;;9.18;1.88;;;;;;;;;;5054158;28;20903;-80
2023/03/27 06:43:21;;;;;;;7.85;1.80;;;;;;;;;;5038983;28;20420;-81
2023/03/27 06:45:48;;;;;;;8.50;1.77;;;;;;;;;;5053134;28;20447;-81
2023/03/27 06:48:15;;;;;;;7.90;2.08;;;;;;;;;;5055683;28;20420;-81
2023/03/27 06:50:41;;;;;;;11.13;2.10;;;;;;;;;;5035484;28;20422;-80
2023/03/27 06:53:07;;;;;;;10.60;1.98;;;;;;;;;;5040369;28;20442;-81
2023/03/27 06:55:35;;;;;;;7.82;1.73;;;;;;;;;;5050327;28;20485;-81
2023/03/27 06:58:02;;;;;;;7.25;1.70;;;;;;;;;;5064211;28;20431;-80
2023/03/27 07:00:29;;;;;;;10.85;2.05;;;;;;;;;;5030874;28;20417;-80
2023/03/27 07:02:56;;;;;;;10.60;1.73;;;;;;;;;;5054700;28;20476;-81
2023/03/27 07:05:23;;;;;;;9.30;1.85;;;;;;;;;;5053567;28;20486;-78
2023/03/27 07:07:49;;;;;;;7.93;1.85;;;;;;;;;;5055181;28;20403;-80
2023/03/27 07:10:16;;;;;;;10.82;2.30;;;;;;;;;;5039830;28;20426;-79
2023/03/27 07:12:49;;;;;;;11.83;2.00;;;;;;;;;;5018359;28;20413;-76
2023/03/27 07:15:16;;;;;;;8.35;1.90;;;;;;;;;;5053555;28;20494;-79
2023/03/27 07:17:43;;;;;;;10.45;1.70;;;;;;;;;;5038444;28;20508;-78
2023/03/27 07:20:12;;;;;;;10.27;1.95;;;;;;;;;;5045638;28;20427;-77
2023/03/27 07:22:42;;;;;;;9.40;2.00;;;;;;;;;;5037656;28;20989;-78
2023/03/27 07:25:08;;;;;;;9.15;1.83;;;;;;;;;;5050552;28;20454;-77
2023/03/27 07:27:34;;;;;;;12.35;2.17;;;;;;;;;;5045398;28;20777;-77
2023/03/27 07:30:01;;;;;;;9.43;1.90;;;;;;;;;;5054435;28;20419;-78
2023/03/27 07:32:31;;;;;;;10.68;1.90;;;;;;;;;;5036362;28;20427;-79
2023/03/27 07:34:57;;;;;;;10.93;2.03;;;;;;;;;;5037497;28;20415;-77
2023/03/27 07:37:24;;;;;;;10.20;1.73;;;;;;;;;;5051956;28;20430;-77
2023/03/27 07:39:50;;;;;;;7.10;1.63;;;;;;;;;;5053101;28;20454;-77
2023/03/27 07:42:16;;;;;;;10.73;2.55;;;;;;;;;;5034970;28;20480;-77
2023/03/27 07:52:28;;;;;;;10.03;3.20;;;;;;;;;;5016266;28;20415;-79
2023/03/27 08:00:52;;;;;;;8.63;2.90;;;;;;;;;;5095616;27;20389;-79
2023/03/27 08:03:19;;;;;;;7.30;1.75;;;;;;;;;;5126051;27;20427;-78
2023/03/27 08:05:52;;;;;;;7.20;2.03;;;;;;;;;;5090887;28;20430;-78
2023/03/27 08:08:19;;;;;;;8.20;1.75;;;;;;;;;;5081398;28;20433;-78
2023/03/27 08:10:46;;;;;;;7.40;1.60;;;;;;;;;;5078707;28;20484;-78
2023/03/27 08:13:12;;;;;;;6.57;1.50;;;;;;;;;;5080359;28;20426;-78
2023/03/27 08:15:38;;;;;;;8.85;1.65;;;;;;;;;;5096312;28;20433;-77
2023/03/27 08:18:05;;;;;;;11.23;1.63;;;;;;;;;;5075631;28;20407;-78
2023/03/27 08:20:31;;;;;;;6.43;1.40;;;;;;;;;;5096084;28;20437;-78
2023/03/27 08:22:59;;;;;;;6.30;1.60;;;;;;;;;;5086867;28;20425;-77
2023/03/27 08:25:28;;;;;;;5.18;1.48;;;;;;;;;;5071805;28;20423;-78
2023/03/27 08:27:54;;;;;;;6.67;1.90;;;;;;;;;;5120744;28;20399;-77
2023/03/27 08:30:22;;;;;;;9.80;1.92;;;;;;;;;;5081475;28;21260;-77
2023/03/27 08:32:48;;;;;;;8.63;1.63;;;;;;;;;;5102176;28;20479;-77
2023/03/27 08:35:15;;;;;;;7.85;2.08;;;;;;;;;;5055116;28;20470;-78
2023/03/27 08:37:42;;;;;;;8.10;1.95;;;;;;;;;;5121330;28;20950;-78
2023/03/27 08:40:29;;;;;;;11.85;1.88;;;;;;;;;;5084643;28;20419;-78
2023/03/27 08:42:57;;;;;;;8.18;1.90;;;;;;;;;;5106932;27;21238;-78
2023/03/27 08:45:26;;;;;;;10.52;1.92;;;;;;;;;;5063107;28;20938;-78
2023/03/27 08:47:55;;;;;;;5.75;1.77;;;;;;;;;;5064364;28;20451;-77
2023/03/27 08:50:33;;;;;;;7.13;1.80;;;;;;;;;;5062784;28;20420;-78
2023/03/27 08:52:59;;;;;;;8.10;2.33;;;;;;;;;;5086850;28;20409;-78
2023/03/27 08:55:46;;;;;;;7.35;2.00;;;;;;;;;;5049019;28;20424;-77
2023/03/27 08:58:17;;;;;;;5.63;1.73;;;;;;;;;;5081493;28;20432;-78
2023/03/27 09:00:44;;;;;;;5.75;1.50;;;;;;;;;;5080198;28;20536;-78
2023/03/27 09:03:22;;;;;;;5.15;1.30;;;;;;;;;;5097278;28;20515;-77
2023/03/27 09:05:53;;;;;;;2.92;1.15;;;;;;;;;;5069503;28;20416;-78
2023/03/27 09:08:22;;;;;;;3.97;1.10;;;;;;;;;;5069307;28;20415;-78
2023/03/27 09:10:58;;;;;;;6.03;1.30;;;;;;;;;;5078085;28;20467;-79
2023/03/27 09:13:27;;;;;;;4.03;1.30;;;;;;;;;;5085577;28;20562;-77
2023/03/27 09:15:59;;;;;;;3.95;1.13;;;;;;;;;;5044511;28;20930;-75
2023/03/27 09:18:45;;;;;;;5.22;1.40;;;;;;;;;;5062179;28;20501;-75
2023/03/27 09:21:35;;;;;;;7.22;1.67;;;5.10;99.90;;;;;;5094689;28;21012;-75
2023/03/27 09:24:05;;;;;;;7.50;2.10;;;;;;;;;;5091886;28;20446;-75
2023/03/27 09:26:36;;;;;;;8.85;2.83;;;;;;;;;;5081879;28;20423;-76
2023/03/27 09:29:02;;;;;;;10.52;3.83;;;;;;;;;;5048088;28;20482;-77
2023/03/27 09:31:30;;;;;;;10.68;3.67;;;;;;;;;;5079472;28;21128;-76
2023/03/27 09:33:57;;;;;;;9.20;1.55;;;;;;;;;;5056493;28;20421;-76
2023/03/27 09:36:24;;;;;;;8.95;2.78;;;;;;;;;;5082100;28;20417;-76
2023/03/27 09:38:53;;;;;;;11.40;2.42;;;;;;;;;;5047347;28;20458;-76
2023/03/27 09:41:27;;;;;;;10.15;3.00;;;6.10;99.90;;;;;;5044388;28;20417;-76
2023/03/27 09:44:01;;;;;;;9.43;2.42;;;;;;;;;;5064862;28;20407;-76
2023/03/27 09:46:28;;;;;;;13.50;5.75;;;;;;;;;;5067255;28;20919;-77
2023/03/27 09:48:57;;;;;;;8.20;2.10;;;;;;;;;;5045804;28;20429;-77
2023/03/27 09:51:40;;;;;;;11.90;3.17;;;;;;;;;;5042782;28;20413;-77
2023/03/27 09:54:07;;;;;;;12.50;3.85;;;;;;;;;;5050362;28;20424;-77
2023/03/27 09:56:41;;;;;;;9.75;3.40;;;;;;;;;;5069629;28;20421;-77
2023/03/27 09:59:19;;;;;;;7.10;1.80;;;;;;;;;;5081074;28;20496;-77
2023/03/27 10:01:48;;;;;;;9.05;2.17;;;;;;;;;;5093124;28;20415;-77
2023/03/27 10:04:16;;;;;;;7.90;2.80;;;;;;;;;;5073091;28;20426;-77
2023/03/27 10:06:46;;;;;;;9.73;3.88;;;;;;;;;;5067812;28;20485;-76
2023/03/27 10:09:33;;;;;;;7.68;2.33;;;;;;;;;;5070720;28;21028;-77
2023/03/27 10:12:08;;;;;;;7.32;3.33;;;;;;;;;;5062369;28;20421;-77
2023/03/27 10:14:40;;;;;;;13.27;5.20;;;;;;;;;;5069722;28;20427;-78
2023/03/27 10:17:06;;;;;;;9.95;3.45;;;;;;;;;;5098965;28;20748;-77
2023/03/27 10:19:37;;;;;;;10.05;3.88;;;;;;;;;;5069262;28;20440;-77
2023/03/27 10:22:12;;;;;;;8.02;3.00;;;;;;;;;;5091459;28;20416;-78
2023/03/27 10:24:38;;;;;;;6.80;2.50;;;;;;;;;;5053318;28;20446;-78
2023/03/27 10:27:06;;;;;;;13.32;3.80;;;;;;;;;;5067673;28;20485;-77
2023/03/27 10:29:33;;;;;;;8.13;1.57;;;;;;;;;;5063541;28;21043;-77
2023/03/27 10:32:02;;;;;;;6.43;1.80;;;6.60;99.90;;;;;;5100720;28;20884;-78
2023/03/27 10:34:29;;;;;;;6.78;1.88;;;;;;;;;;5066303;28;20424;-77
2023/03/27 10:36:55;;;;;;;6.40;1.58;;;;;;;;;;5065531;28;20426;-77
2023/03/27 10:39:25;;;;;;;7.93;1.65;;;;;;;;;;5065940;28;20959;-77
2023/03/27 10:41:51;;;;;;;6.45;1.45;;;;;;;;;;5060400;28;20417;-77
2023/03/27 10:44:19;;;;;;;5.80;1.50;;;;;;;;;;5051911;28;20770;-77
2023/03/27 10:46:45;;;;;;;6.55;1.30;;;;;;;;;;5062695;28;20494;-77
2023/03/27 10:49:11;;;;;;;7.50;1.80;;;;;;;;;;5053237;28;20477;-78
2023/03/27 10:51:51;;;;;;;4.88;1.33;;;;;;;;;;5054630;28;20399;-77
2023/03/27 10:54:32;;;;;;;5.43;1.42;;;;;;;;;;5054514;28;20418;-77
2023/03/27 10:57:09;;;;;;;6.22;1.50;;;;;;;;;;5044443;28;20425;-78
2023/03/27 10:59:46;;;;;;;5.32;1.35;;;;;;;;;;5034177;28;20461;-77
2023/03/27 11:02:24;;;;;;;7.50;1.60;;;;;;;;;;5040794;28;20489;-77
2023/03/27 11:05:05;;;;;;;6.30;1.55;;;;;;;;;;5054294;28;20406;-77
2023/03/27 11:07:45;;;;;;;6.53;1.40;;;7.10;99.90;;;;;;5070955;28;20399;-77
2023/03/27 11:10:17;;;;;;;4.82;1.50;;;;;;;;;;5069885;28;20499;-78
2023/03/27 11:12:48;;;;;;;3.33;0.93;;;;;;;;;;5067445;28;20511;-78
2023/03/27 11:15:21;;;;;;;3.60;1.00;;;;;;;;;;5078863;28;20473;-77
2023/03/27 11:17:47;;;;;;;4.85;1.10;;;;;;;;;;5051569;28;20420;-77
2023/03/27 11:20:26;;;;;;;4.78;1.08;;;;;;;;;;5048445;28;20467;-75
2023/03/27 11:22:59;;;;;;;4.15;0.95;;;;;;;;;;5055361;28;20987;-75
2023/03/27 11:25:37;;;;;;;4.87;1.50;;;;;;;;;;5096721;28;20451;-75
2023/03/27 11:28:24;;;;;;;5.72;1.40;;;;;;;;;;5065941;28;20471;-75
2023/03/27 11:30:56;;;;;;;3.58;1.25;;;;;;;;;;5060961;28;20431;-77
2023/03/27 11:33:28;;;;;;;4.18;1.40;;;;;;;;;;5060423;28;20412;-76
2023/03/27 11:36:03;;;;;;;5.33;1.37;;;;;;;;;;5069481;28;20810;-75
2023/03/27 11:38:32;;;;;;;7.63;2.00;;;;;;;;;;5078177;28;20773;-75
2023/03/27 11:40:58;;;;;;;9.32;1.85;;;;;;;;;;5092850;28;20423;-76
2023/03/27 11:43:24;;;;;;;7.70;1.60;;;;;;;;;;5069007;28;20816;-75
2023/03/27 11:45:55;;;;;;;7.60;1.48;;;;;;;;;;5045167;28;20411;-75
2023/03/27 11:48:28;;;;;;;6.35;1.30;;;;;;;;;;5083981;28;20397;-75
2023/03/27 11:50:57;;;;;;;6.33;1.40;;;;;;;;;;5066690;28;20996;-76
2023/03/27 11:53:28;;;;;;;6.75;1.58;;;;;;;;;;5067044;28;20817;-76
2023/03/27 11:56:01;;;;;;;8.20;1.52;;;;;;;;;;5054345;28;20923;-75
2023/03/27 11:58:29;;;;;;;9.80;1.70;;;;;;;;;;5061187;28;20462;-77
2023/03/27 12:01:00;;;;;;;6.35;1.48;;;;;;;;;;5060333;28;20424;-78
2023/03/27 12:03:36;;;;;;;8.75;1.63;;;;;;;;;;5062975;28;20469;-79
2023/03/27 12:06:02;;;;;;;7.77;1.80;;;;;;;;;;5064937;28;20541;-78
2023/03/27 12:08:31;;;;;;;6.82;1.63;;;;;;;;;;5065046;28;20479;-79
2023/03/27 12:10:58;;;;;;;7.63;1.60;;;;;;;;;;5083656;28;20471;-78
2023/03/27 12:13:33;;;;;;;6.27;1.53;;;;;;;;;;5070123;28;20489;-78
2023/03/27 12:16:32;;;;;;;7.72;1.48;;;6.30;99.90;;;;;;5085444;28;20498;-77
2023/03/27 12:19:05;;;;;;;4.80;1.50;;;;;;;;;;5085899;28;21058;-76
2023/03/27 12:21:38;;;;;;;6.25;1.50;;;;;;;;;;5082937;28;20428;-77
2023/03/27 12:24:10;;;;;;;4.53;1.40;;;;;;;;;;5080655;28;20729;-76
2023/03/27 12:26:36;;;;;;;5.13;1.33;;;;;;;;;;5090473;28;20424;-75
2023/03/27 12:29:22;;;;;;;8.80;1.70;;;;;;;;;;5077755;28;20423;-76
2023/03/27 12:32:12;;;;;;;10.40;1.70;;;7.30;99.90;;;;;;5063814;28;20429;-76
2023/03/27 12:34:48;;;;;;;9.07;1.70;;;;;;;;;;5088303;28;20417;-76
2023/03/27 12:37:16;;;;;;;7.68;1.70;;;7.30;99.90;;;;;;5082192;28;20407;-76
2023/03/27 12:39:53;;;;;;;8.95;1.90;;;7.70;99.90;;;;;;5073114;28;20422;-77
2023/03/27 12:42:37;;;;;;;6.93;1.63;;;;;;;;;;5090783;28;20912;-77
2023/03/27 12:45:15;;;;;;;6.43;1.67;;;;;;;;;;5065822;28;20414;-77
2023/03/27 12:48:00;;;;;;;9.52;2.28;;;;;;;;;;5067486;28;20413;-77
2023/03/27 12:50:27;;;;;;;7.25;2.17;;;;;;;;;;5073105;28;20765;-76
2023/03/27 12:52:53;;;;;;;7.30;2.78;;;;;;;;;;5089966;28;20851;-76
2023/03/27 12:55:19;;;;;;;8.20;2.70;;;;;;;;;;5106626;27;20769;-76
2023/03/27 12:57:45;;;;;;;8.65;2.78;;;6.70;99.90;;;;;;5092667;28;20410;-77
2023/03/27 13:00:20;;;;;;;6.10;1.80;;;;;;;;;;5091894;28;20427;-76
2023/03/27 13:03:05;;;;;;;5.85;1.50;;;;;;;;;;5066061;28;20464;-75
2023/03/27 13:05:43;;;;;;;4.27;1.00;;;;;;;;;;5074643;28;20417;-76
2023/03/27 13:08:16;;;;;;;4.25;1.40;;;;;;;;;;5071159;28;20496;-78
2023/03/27 13:10:45;;;;;;;4.97;1.15;;;;;;;;;;5073543;28;20513;-80
2023/03/27 13:13:29;;;;;;;6.95;1.60;;;;;;;;;;5074346;28;20824;-79
2023/03/27 13:15:55;;;;;;;6.50;1.70;;;;;;;;;;5075050;28;20417;-81
2023/03/27 13:18:35;;;;;;;7.22;1.83;;;;;;;;;;5085311;28;20824;-80
2023/03/27 13:21:17;;;;;;;6.13;2.30;;;;;;;;;;5064233;28;20421;-80
2023/03/27 13:24:14;;;;;;;8.13;1.77;;;7.70;99.90;;;;;;5062866;28;20514;-80
2023/03/27 13:26:56;;;;;;;7.47;2.05;;;;;;;;;;5102196;28;20429;-80
2023/03/27 13:29:24;;;;;;;7.63;2.17;;;;;;;;;;5058070;28;20500;-80
2023/03/27 13:31:50;;;;;;;9.63;2.53;;;;;;;;;;5076013;28;20432;-80
2023/03/27 13:34:25;;;;;;;8.02;2.80;;;;;;;;;;5070780;28;20449;-80
2023/03/27 13:36:52;;;;;;;8.55;2.20;;;;;;;;;;5066691;28;21006;-80
2023/03/27 13:39:23;;;;;;;9.82;2.25;;;;;;;;;;5082341;28;20514;-79
2023/03/27 13:41:52;;;;;;;8.32;2.50;;;;;;;;;;5084505;28;20437;-80
2023/03/27 13:44:27;;;;;;;7.20;1.73;;;;;;;;;;5083117;28;20414;-80
2023/03/27 13:46:56;;;;;;;8.85;1.88;;;;;;;;;;5075084;28;20422;-80
2023/03/27 13:49:22;;;;;;;8.82;2.10;;;;;;;;;;5059542;28;20409;-80
2023/03/27 13:52:11;;;;;;;7.28;1.80;;;7.50;99.90;;;;;;5074975;28;20401;-81
2023/03/27 13:54:46;;;;;;;8.60;1.80;;;;;;;;;;5074250;28;20445;-81
2023/03/27 13:57:16;;;;;;;5.78;1.60;;;;;;;;;;5073854;28;20401;-80
2023/03/27 13:59:58;;;;;;;6.55;1.60;;;;;;;;;;5088328;28;20435;-80
2023/03/27 14:02:30;;;;;;;5.78;1.45;;;;;;;;;;5086795;28;20925;-80
2023/03/27 14:04:56;;;;;;;5.03;1.25;;;;;;;;;;5054974;28;20915;-81
2023/03/27 14:07:35;;;;;;;5.95;1.67;;;;;;;;;;5083341;28;20813;-81
2023/03/27 14:10:16;;;;;;;6.47;1.58;;;;;;;;;;5074936;28;20410;-80
2023/03/27 14:12:58;;;;;;;8.30;1.60;;;;;;;;;;5072590;28;20447;-81
2023/03/27 14:15:42;;;;;;;7.38;1.90;;;;;;;;;;5073613;28;20428;-81
2023/03/27 14:18:30;;;;;;;7.13;1.65;;;7.40;99.90;;;;;;5051472;28;20421;-80
2023/03/27 14:21:00;;;;;;;7.78;1.95;;;;;;;;;;5088169;28;20419;-81
2023/03/27 14:23:34;;;;;;;6.15;1.40;;;7.20;99.90;;;;;;5072711;28;20507;-81
2023/03/27 14:26:01;;;;;;;6.10;1.80;;;;;;;;;;5067691;28;20420;-81
2023/03/27 14:28:48;;;;;;;5.55;1.65;;;6.90;99.90;;;;;;5089418;28;20492;-80
2023/03/27 14:31:17;;;;;;;8.77;2.08;;;6.80;99.90;;;;;;5106764;28;20414;-81
2023/03/27 14:33:50;;;;;;;9.38;2.50;;;;;;;;;;5057986;28;20430;-81
2023/03/27 14:36:18;;;;;;;10.30;2.00;;;;;;;;;;5059609;28;20427;-80
2023/03/27 14:38:45;;;;;;;6.95;1.50;;;;;;;;;;5102667;28;20425;-81
2023/03/27 14:41:25;;;;;;;8.98;1.83;;;7.00;99.90;;;;;;5067689;28;20421;-81
2023/03/27 14:43:52;;;;;;;7.03;2.40;;;7.00;99.90;;;;;;5067251;28;20498;-82
2023/03/27 14:46:20;;;;;;;6.00;2.00;;;;;;;;;;5056516;28;20405;-81
2023/03/27 14:48:50;;;;;;;7.05;2.40;;;;;;;;;;5074503;28;20425;-81
2023/03/27 14:51:23;;;;;;;6.10;1.90;;;;;;;;;;5074198;28;20998;-81
2023/03/27 14:53:51;;;;;;;7.47;1.80;;;;;;;;;;5069913;28;20990;-80
2023/03/27 14:56:22;;;;;;;6.10;1.98;;;;;;;;;;5053244;28;21411;-81
2023/03/27 14:58:51;;;;;;;6.68;1.90;;;7.30;99.90;;;;;;5090441;28;20825;-81
2023/03/27 15:01:17;;;;;;;4.45;1.30;;;;;;;;;;5055445;28;20421;-81
2023/03/27 15:03:47;;;;;;;6.40;1.80;;;;;;;;;;5055298;28;20402;-81